sensor_id;sensor_type;location;lat;lon;timestamp;P1;durP1;ratioP1;P2;durP2;ratioP2
57663;SDS011;43493;53.098;6.064;2023-07-13T00:00:11;10.07;;;2.43;;
57663;SDS011;43493;53.098;6.064;2023-07-13T00:02:40;9.83;;;2.50;;
57663;SDS011;43493;53.098;6.064;2023-07-13T00:05:06;9.10;;;2.20;;
57663;SDS011;43493;53.098;6.064;2023-07-13T00:07:33;5.73;;;1.77;;
57663;SDS011;43493;53.098;6.064;2023-07-13T00:09:59;6.27;;;1.97;;
57663;SDS011;43493;53.098;6.064;2023-07-13T00:12:26;6.00;;;1.90;;
57663;SDS011;43493;53.098;6.064;2023-07-13T00:14:55;9.83;;;2.00;;
57663;SDS011;43493;53.098;6.064;2023-07-13T00:17:26;7.40;;;1.50;;
57663;SDS011;43493;53.098;6.064;2023-07-13T00:19:52;5.23;;;1.93;;
57663;SDS011;43493;53.098;6.064;2023-07-13T00:22:20;6.17;;;1.73;;
57663;SDS011;43493;53.098;6.064;2023-07-13T00:24:46;6.87;;;1.90;;
57663;SDS011;43493;53.098;6.064;2023-07-13T00:27:12;3.57;;;1.40;;
57663;SDS011;43493;53.098;6.064;2023-07-13T00:29:39;5.53;;;1.50;;
57663;SDS011;43493;53.098;6.064;2023-07-13T00:32:05;6.67;;;2.60;;
57663;SDS011;43493;53.098;6.064;2023-07-13T00:34:32;6.83;;;1.77;;
57663;SDS011;43493;53.098;6.064;2023-07-13T00:36:58;10.17;;;2.07;;
57663;SDS011;43493;53.098;6.064;2023-07-13T00:39:24;4.83;;;1.93;;
57663;SDS011;43493;53.098;6.064;2023-07-13T00:41:50;8.03;;;1.90;;
57663;SDS011;43493;53.098;6.064;2023-07-13T00:44:18;5.17;;;1.70;;
57663;SDS011;43493;53.098;6.064;2023-07-13T00:46:44;9.87;;;2.17;;
57663;SDS011;43493;53.098;6.064;2023-07-13T00:49:12;6.83;;;2.17;;
57663;SDS011;43493;53.098;6.064;2023-07-13T00:51:59;5.83;;;1.83;;
57663;SDS011;43493;53.098;6.064;2023-07-13T00:54:41;7.03;;;2.58;;
57663;SDS011;43493;53.098;6.064;2023-07-13T00:57:12;4.87;;;2.00;;
57663;SDS011;43493;53.098;6.064;2023-07-13T00:59:41;5.70;;;1.87;;
57663;SDS011;43493;53.098;6.064;2023-07-13T01:02:10;6.57;;;1.60;;
57663;SDS011;43493;53.098;6.064;2023-07-13T01:04:36;5.93;;;2.03;;
57663;SDS011;43493;53.098;6.064;2023-07-13T01:07:03;6.53;;;1.63;;
57663;SDS011;43493;53.098;6.064;2023-07-13T01:09:31;6.20;;;1.63;;
57663;SDS011;43493;53.098;6.064;2023-07-13T01:11:57;4.97;;;1.63;;
57663;SDS011;43493;53.098;6.064;2023-07-13T01:14:24;5.00;;;1.40;;
57663;SDS011;43493;53.098;6.064;2023-07-13T01:16:50;5.13;;;2.07;;
57663;SDS011;43493;53.098;6.064;2023-07-13T01:21:55;5.73;;;1.40;;
57663;SDS011;43493;53.098;6.064;2023-07-13T01:24:20;2.93;;;1.30;;
57663;SDS011;43493;53.098;6.064;2023-07-13T01:26:46;3.80;;;1.30;;
57663;SDS011;43493;53.098;6.064;2023-07-13T01:29:12;6.43;;;1.50;;
57663;SDS011;43493;53.098;6.064;2023-07-13T01:31:38;5.80;;;1.40;;
57663;SDS011;43493;53.098;6.064;2023-07-13T01:34:03;5.53;;;1.23;;
57663;SDS011;43493;53.098;6.064;2023-07-13T01:36:30;3.60;;;1.20;;
57663;SDS011;43493;53.098;6.064;2023-07-13T01:38:56;3.93;;;1.50;;
57663;SDS011;43493;53.098;6.064;2023-07-13T01:41:21;7.40;;;1.77;;
57663;SDS011;43493;53.098;6.064;2023-07-13T01:43:47;6.53;;;1.57;;
57663;SDS011;43493;53.098;6.064;2023-07-13T01:46:13;4.93;;;1.60;;
57663;SDS011;43493;53.098;6.064;2023-07-13T01:48:38;6.23;;;1.50;;
57663;SDS011;43493;53.098;6.064;2023-07-13T01:51:04;5.60;;;1.77;;
57663;SDS011;43493;53.098;6.064;2023-07-13T01:53:30;6.97;;;1.57;;
57663;SDS011;43493;53.098;6.064;2023-07-13T01:55:56;6.50;;;1.90;;
57663;SDS011;43493;53.098;6.064;2023-07-13T01:58:21;7.03;;;2.10;;
57663;SDS011;43493;53.098;6.064;2023-07-13T02:00:48;4.20;;;1.40;;
57663;SDS011;43493;53.098;6.064;2023-07-13T02:03:15;6.57;;;1.80;;
57663;SDS011;43493;53.098;6.064;2023-07-13T02:05:43;5.73;;;2.10;;
57663;SDS011;43493;53.098;6.064;2023-07-13T02:08:09;5.00;;;1.70;;
57663;SDS011;43493;53.098;6.064;2023-07-13T02:10:36;4.90;;;1.70;;
57663;SDS011;43493;53.098;6.064;2023-07-13T02:13:04;4.73;;;1.40;;
57663;SDS011;43493;53.098;6.064;2023-07-13T02:15:30;6.07;;;1.67;;
57663;SDS011;43493;53.098;6.064;2023-07-13T02:17:56;6.00;;;1.80;;
57663;SDS011;43493;53.098;6.064;2023-07-13T02:20:23;7.90;;;1.90;;
57663;SDS011;43493;53.098;6.064;2023-07-13T02:22:49;9.00;;;2.43;;
57663;SDS011;43493;53.098;6.064;2023-07-13T02:25:15;5.30;;;1.67;;
57663;SDS011;43493;53.098;6.064;2023-07-13T02:27:41;5.77;;;2.10;;
57663;SDS011;43493;53.098;6.064;2023-07-13T02:30:07;6.03;;;2.00;;
57663;SDS011;43493;53.098;6.064;2023-07-13T02:32:33;5.73;;;2.20;;
57663;SDS011;43493;53.098;6.064;2023-07-13T02:34:59;8.03;;;2.00;;
57663;SDS011;43493;53.098;6.064;2023-07-13T02:37:24;7.70;;;2.20;;
57663;SDS011;43493;53.098;6.064;2023-07-13T02:39:50;8.07;;;2.30;;
57663;SDS011;43493;53.098;6.064;2023-07-13T02:42:16;8.50;;;2.50;;
57663;SDS011;43493;53.098;6.064;2023-07-13T02:44:41;9.60;;;2.83;;
57663;SDS011;43493;53.098;6.064;2023-07-13T02:47:07;6.97;;;2.70;;
57663;SDS011;43493;53.098;6.064;2023-07-13T02:49:33;10.33;;;2.70;;
57663;SDS011;43493;53.098;6.064;2023-07-13T02:51:58;9.70;;;2.40;;
57663;SDS011;43493;53.098;6.064;2023-07-13T02:54:24;12.87;;;3.30;;
57663;SDS011;43493;53.098;6.064;2023-07-13T02:56:50;9.50;;;2.70;;
57663;SDS011;43493;53.098;6.064;2023-07-13T02:59:16;8.30;;;2.47;;
57663;SDS011;43493;53.098;6.064;2023-07-13T03:01:42;11.70;;;2.80;;
57663;SDS011;43493;53.098;6.064;2023-07-13T03:04:07;10.00;;;2.63;;
57663;SDS011;43493;53.098;6.064;2023-07-13T03:06:33;10.77;;;3.00;;
57663;SDS011;43493;53.098;6.064;2023-07-13T03:08:59;12.77;;;3.23;;
57663;SDS011;43493;53.098;6.064;2023-07-13T03:11:25;13.43;;;3.23;;
57663;SDS011;43493;53.098;6.064;2023-07-13T03:13:51;12.03;;;3.53;;
57663;SDS011;43493;53.098;6.064;2023-07-13T03:16:17;10.23;;;2.97;;
57663;SDS011;43493;53.098;6.064;2023-07-13T03:18:43;12.87;;;3.17;;
57663;SDS011;43493;53.098;6.064;2023-07-13T03:21:09;11.77;;;3.47;;
57663;SDS011;43493;53.098;6.064;2023-07-13T03:23:35;12.67;;;3.27;;
57663;SDS011;43493;53.098;6.064;2023-07-13T03:26:05;12.90;;;3.30;;
57663;SDS011;43493;53.098;6.064;2023-07-13T03:28:35;16.20;;;3.78;;
57663;SDS011;43493;53.098;6.064;2023-07-13T03:31:02;11.67;;;3.03;;
57663;SDS011;43493;53.098;6.064;2023-07-13T03:33:29;11.53;;;3.40;;
57663;SDS011;43493;53.098;6.064;2023-07-13T03:35:55;17.47;;;3.83;;
57663;SDS011;43493;53.098;6.064;2023-07-13T03:38:22;14.97;;;3.37;;
57663;SDS011;43493;53.098;6.064;2023-07-13T03:40:47;12.93;;;2.93;;
57663;SDS011;43493;53.098;6.064;2023-07-13T03:43:14;13.13;;;3.33;;
57663;SDS011;43493;53.098;6.064;2023-07-13T03:45:39;12.03;;;3.10;;
57663;SDS011;43493;53.098;6.064;2023-07-13T03:48:05;11.23;;;4.07;;
57663;SDS011;43493;53.098;6.064;2023-07-13T03:50:31;12.70;;;3.33;;
57663;SDS011;43493;53.098;6.064;2023-07-13T03:52:57;12.23;;;2.93;;
57663;SDS011;43493;53.098;6.064;2023-07-13T03:55:23;9.90;;;2.70;;
57663;SDS011;43493;53.098;6.064;2023-07-13T03:57:59;12.83;;;3.50;;
57663;SDS011;43493;53.098;6.064;2023-07-13T04:00:45;14.93;;;3.60;;
57663;SDS011;43493;53.098;6.064;2023-07-13T04:03:10;13.43;;;3.70;;
57663;SDS011;43493;53.098;6.064;2023-07-13T04:05:36;13.80;;;3.10;;
57663;SDS011;43493;53.098;6.064;2023-07-13T04:08:05;11.33;;;3.10;;
57663;SDS011;43493;53.098;6.064;2023-07-13T04:10:31;10.57;;;3.63;;
57663;SDS011;43493;53.098;6.064;2023-07-13T04:12:57;13.03;;;4.37;;
57663;SDS011;43493;53.098;6.064;2023-07-13T04:15:23;11.37;;;3.87;;
57663;SDS011;43493;53.098;6.064;2023-07-13T04:17:48;9.73;;;3.20;;
57663;SDS011;43493;53.098;6.064;2023-07-13T04:20:14;12.70;;;3.00;;
57663;SDS011;43493;53.098;6.064;2023-07-13T04:22:40;16.23;;;3.13;;
57663;SDS011;43493;53.098;6.064;2023-07-13T04:25:06;10.70;;;3.07;;
57663;SDS011;43493;53.098;6.064;2023-07-13T04:27:32;11.77;;;3.70;;
57663;SDS011;43493;53.098;6.064;2023-07-13T04:29:57;14.40;;;3.33;;
57663;SDS011;43493;53.098;6.064;2023-07-13T04:32:23;11.00;;;2.87;;
57663;SDS011;43493;53.098;6.064;2023-07-13T04:34:49;12.57;;;2.70;;
57663;SDS011;43493;53.098;6.064;2023-07-13T04:37:18;12.07;;;2.73;;
57663;SDS011;43493;53.098;6.064;2023-07-13T04:39:45;10.03;;;2.60;;
57663;SDS011;43493;53.098;6.064;2023-07-13T04:42:11;9.20;;;3.00;;
57663;SDS011;43493;53.098;6.064;2023-07-13T04:44:36;8.87;;;2.80;;
57663;SDS011;43493;53.098;6.064;2023-07-13T04:47:02;9.47;;;2.70;;
57663;SDS011;43493;53.098;6.064;2023-07-13T04:49:28;9.27;;;2.97;;
57663;SDS011;43493;53.098;6.064;2023-07-13T04:51:54;8.43;;;2.70;;
57663;SDS011;43493;53.098;6.064;2023-07-13T04:54:20;10.00;;;2.97;;
57663;SDS011;43493;53.098;6.064;2023-07-13T04:56:46;10.00;;;2.80;;
57663;SDS011;43493;53.098;6.064;2023-07-13T04:59:12;10.37;;;2.63;;
57663;SDS011;43493;53.098;6.064;2023-07-13T05:01:38;13.00;;;4.87;;
57663;SDS011;43493;53.098;6.064;2023-07-13T05:04:04;8.67;;;2.50;;
57663;SDS011;43493;53.098;6.064;2023-07-13T05:06:30;11.93;;;2.73;;
57663;SDS011;43493;53.098;6.064;2023-07-13T05:08:56;9.20;;;2.70;;
57663;SDS011;43493;53.098;6.064;2023-07-13T05:11:22;13.07;;;3.67;;
57663;SDS011;43493;53.098;6.064;2023-07-13T05:13:47;12.93;;;3.43;;
57663;SDS011;43493;53.098;6.064;2023-07-13T05:16:13;12.90;;;2.67;;
57663;SDS011;43493;53.098;6.064;2023-07-13T05:18:39;10.27;;;2.97;;
57663;SDS011;43493;53.098;6.064;2023-07-13T05:21:06;9.23;;;2.77;;
57663;SDS011;43493;53.098;6.064;2023-07-13T05:23:33;10.47;;;2.67;;
57663;SDS011;43493;53.098;6.064;2023-07-13T05:26:00;11.07;;;2.43;;
57663;SDS011;43493;53.098;6.064;2023-07-13T05:28:27;9.10;;;2.97;;
57663;SDS011;43493;53.098;6.064;2023-07-13T05:30:53;7.97;;;2.30;;
57663;SDS011;43493;53.098;6.064;2023-07-13T05:33:19;10.33;;;2.97;;
57663;SDS011;43493;53.098;6.064;2023-07-13T05:35:45;10.37;;;3.10;;
57663;SDS011;43493;53.098;6.064;2023-07-13T05:38:11;9.83;;;3.20;;
57663;SDS011;43493;53.098;6.064;2023-07-13T05:40:37;9.27;;;2.63;;
57663;SDS011;43493;53.098;6.064;2023-07-13T05:43:03;11.30;;;3.37;;
57663;SDS011;43493;53.098;6.064;2023-07-13T05:45:28;6.57;;;2.50;;
57663;SDS011;43493;53.098;6.064;2023-07-13T05:47:54;8.70;;;2.33;;
57663;SDS011;43493;53.098;6.064;2023-07-13T05:50:20;8.17;;;3.20;;
57663;SDS011;43493;53.098;6.064;2023-07-13T05:52:46;8.30;;;2.50;;
57663;SDS011;43493;53.098;6.064;2023-07-13T05:55:12;6.80;;;2.77;;
57663;SDS011;43493;53.098;6.064;2023-07-13T05:57:38;11.10;;;2.50;;
57663;SDS011;43493;53.098;6.064;2023-07-13T06:00:04;12.50;;;2.63;;
57663;SDS011;43493;53.098;6.064;2023-07-13T06:02:30;7.83;;;2.83;;
57663;SDS011;43493;53.098;6.064;2023-07-13T06:04:56;9.27;;;2.87;;
57663;SDS011;43493;53.098;6.064;2023-07-13T06:07:21;10.97;;;3.13;;
57663;SDS011;43493;53.098;6.064;2023-07-13T06:09:47;8.30;;;2.60;;
57663;SDS011;43493;53.098;6.064;2023-07-13T06:12:13;10.47;;;2.93;;
57663;SDS011;43493;53.098;6.064;2023-07-13T06:14:38;8.63;;;3.10;;
57663;SDS011;43493;53.098;6.064;2023-07-13T06:17:04;8.07;;;2.50;;
57663;SDS011;43493;53.098;6.064;2023-07-13T06:19:31;8.33;;;2.33;;
57663;SDS011;43493;53.098;6.064;2023-07-13T06:21:56;8.43;;;2.47;;
57663;SDS011;43493;53.098;6.064;2023-07-13T06:24:23;8.97;;;2.70;;
57663;SDS011;43493;53.098;6.064;2023-07-13T06:26:49;7.40;;;2.70;;
57663;SDS011;43493;53.098;6.064;2023-07-13T06:29:15;9.30;;;2.53;;
57663;SDS011;43493;53.098;6.064;2023-07-13T06:31:41;9.30;;;2.83;;
57663;SDS011;43493;53.098;6.064;2023-07-13T06:34:07;7.77;;;2.20;;
57663;SDS011;43493;53.098;6.064;2023-07-13T06:36:33;8.90;;;2.77;;
57663;SDS011;43493;53.098;6.064;2023-07-13T06:38:59;6.20;;;2.20;;
57663;SDS011;43493;53.098;6.064;2023-07-13T06:41:25;8.37;;;2.73;;
57663;SDS011;43493;53.098;6.064;2023-07-13T06:43:51;12.70;;;3.10;;
57663;SDS011;43493;53.098;6.064;2023-07-13T06:46:19;8.50;;;2.50;;
57663;SDS011;43493;53.098;6.064;2023-07-13T06:48:48;12.63;;;3.10;;
57663;SDS011;43493;53.098;6.064;2023-07-13T06:51:14;13.67;;;3.10;;
57663;SDS011;43493;53.098;6.064;2023-07-13T06:53:40;8.70;;;2.60;;
57663;SDS011;43493;53.098;6.064;2023-07-13T06:56:07;7.33;;;2.90;;
57663;SDS011;43493;53.098;6.064;2023-07-13T06:58:33;10.77;;;2.50;;
57663;SDS011;43493;53.098;6.064;2023-07-13T07:00:59;10.57;;;2.50;;
57663;SDS011;43493;53.098;6.064;2023-07-13T07:03:25;7.93;;;2.20;;
57663;SDS011;43493;53.098;6.064;2023-07-13T07:05:50;9.83;;;2.33;;
57663;SDS011;43493;53.098;6.064;2023-07-13T07:08:16;8.40;;;2.70;;
57663;SDS011;43493;53.098;6.064;2023-07-13T07:10:42;9.27;;;2.57;;
57663;SDS011;43493;53.098;6.064;2023-07-13T07:13:08;11.77;;;3.73;;
57663;SDS011;43493;53.098;6.064;2023-07-13T07:15:34;13.20;;;4.10;;
57663;SDS011;43493;53.098;6.064;2023-07-13T07:18:00;16.27;;;3.77;;
57663;SDS011;43493;53.098;6.064;2023-07-13T07:20:26;10.03;;;3.00;;
57663;SDS011;43493;53.098;6.064;2023-07-13T07:22:52;10.83;;;2.90;;
57663;SDS011;43493;53.098;6.064;2023-07-13T07:25:18;8.80;;;3.07;;
57663;SDS011;43493;53.098;6.064;2023-07-13T07:27:44;10.73;;;2.87;;
57663;SDS011;43493;53.098;6.064;2023-07-13T07:30:10;9.00;;;3.03;;
57663;SDS011;43493;53.098;6.064;2023-07-13T07:32:36;7.60;;;2.80;;
57663;SDS011;43493;53.098;6.064;2023-07-13T07:35:02;12.03;;;3.43;;
57663;SDS011;43493;53.098;6.064;2023-07-13T07:37:27;8.17;;;2.50;;
57663;SDS011;43493;53.098;6.064;2023-07-13T07:39:53;7.87;;;2.43;;
57663;SDS011;43493;53.098;6.064;2023-07-13T07:42:19;6.87;;;2.27;;
57663;SDS011;43493;53.098;6.064;2023-07-13T07:44:45;6.37;;;1.97;;
57663;SDS011;43493;53.098;6.064;2023-07-13T07:47:10;8.67;;;2.60;;
57663;SDS011;43493;53.098;6.064;2023-07-13T07:49:37;7.50;;;2.17;;
57663;SDS011;43493;53.098;6.064;2023-07-13T07:52:03;6.63;;;2.57;;
57663;SDS011;43493;53.098;6.064;2023-07-13T07:54:29;8.67;;;2.50;;
57663;SDS011;43493;53.098;6.064;2023-07-13T07:56:55;6.57;;;2.57;;
57663;SDS011;43493;53.098;6.064;2023-07-13T07:59:21;8.50;;;2.30;;
57663;SDS011;43493;53.098;6.064;2023-07-13T08:01:46;6.80;;;2.10;;
57663;SDS011;43493;53.098;6.064;2023-07-13T08:04:15;5.73;;;2.20;;
57663;SDS011;43493;53.098;6.064;2023-07-13T08:06:41;7.03;;;2.20;;
57663;SDS011;43493;53.098;6.064;2023-07-13T08:09:07;7.90;;;2.67;;
57663;SDS011;43493;53.098;6.064;2023-07-13T08:11:33;8.30;;;2.33;;
57663;SDS011;43493;53.098;6.064;2023-07-13T08:13:59;7.07;;;2.53;;
57663;SDS011;43493;53.098;6.064;2023-07-13T08:16:25;7.70;;;2.60;;
57663;SDS011;43493;53.098;6.064;2023-07-13T08:18:51;6.43;;;2.43;;
57663;SDS011;43493;53.098;6.064;2023-07-13T08:21:17;6.43;;;2.10;;
57663;SDS011;43493;53.098;6.064;2023-07-13T08:23:45;7.13;;;2.07;;
57663;SDS011;43493;53.098;6.064;2023-07-13T08:26:11;5.17;;;1.97;;
57663;SDS011;43493;53.098;6.064;2023-07-13T08:28:37;6.27;;;2.13;;
57663;SDS011;43493;53.098;6.064;2023-07-13T08:31:04;6.80;;;2.30;;
57663;SDS011;43493;53.098;6.064;2023-07-13T08:33:33;8.57;;;2.73;;
57663;SDS011;43493;53.098;6.064;2023-07-13T08:36:00;8.03;;;2.00;;
57663;SDS011;43493;53.098;6.064;2023-07-13T08:38:26;7.20;;;2.30;;
57663;SDS011;43493;53.098;6.064;2023-07-13T08:40:53;5.57;;;1.87;;
57663;SDS011;43493;53.098;6.064;2023-07-13T08:43:23;7.50;;;2.30;;
57663;SDS011;43493;53.098;6.064;2023-07-13T08:45:53;6.10;;;2.13;;
57663;SDS011;43493;53.098;6.064;2023-07-13T08:48:38;6.23;;;2.10;;
57663;SDS011;43493;53.098;6.064;2023-07-13T08:51:24;8.33;;;2.43;;
57663;SDS011;43493;53.098;6.064;2023-07-13T08:53:54;8.73;;;2.47;;
57663;SDS011;43493;53.098;6.064;2023-07-13T08:56:25;5.77;;;2.00;;
57663;SDS011;43493;53.098;6.064;2023-07-13T08:58:55;5.07;;;1.70;;
57663;SDS011;43493;53.098;6.064;2023-07-13T09:04:21;6.47;;;2.00;;
57663;SDS011;43493;53.098;6.064;2023-07-13T09:09:21;5.17;;;1.73;;
57663;SDS011;43493;53.098;6.064;2023-07-13T09:12:20;4.47;;;1.50;;
57663;SDS011;43493;53.098;6.064;2023-07-13T09:15:02;3.70;;;1.50;;
57663;SDS011;43493;53.098;6.064;2023-07-13T09:17:39;6.10;;;1.53;;
57663;SDS011;43493;53.098;6.064;2023-07-13T09:20:34;5.13;;;1.80;;
57663;SDS011;43493;53.098;6.064;2023-07-13T09:22:59;3.70;;;1.50;;
57663;SDS011;43493;53.098;6.064;2023-07-13T09:27:55;4.13;;;1.37;;
57663;SDS011;43493;53.098;6.064;2023-07-13T09:30:27;6.40;;;1.60;;
57663;SDS011;43493;53.098;6.064;2023-07-13T09:32:58;4.07;;;1.65;;
57663;SDS011;43493;53.098;6.064;2023-07-13T09:35:25;7.37;;;1.60;;
57663;SDS011;43493;53.098;6.064;2023-07-13T09:37:57;2.90;;;1.30;;
57663;SDS011;43493;53.098;6.064;2023-07-13T09:40:28;3.60;;;1.40;;
57663;SDS011;43493;53.098;6.064;2023-07-13T09:43:04;4.17;;;1.57;;
57663;SDS011;43493;53.098;6.064;2023-07-13T09:45:33;5.50;;;1.70;;
57663;SDS011;43493;53.098;6.064;2023-07-13T09:48:04;5.00;;;1.60;;
57663;SDS011;43493;53.098;6.064;2023-07-13T09:50:33;4.27;;;1.70;;
57663;SDS011;43493;53.098;6.064;2023-07-13T09:53:00;2.60;;;1.30;;
57663;SDS011;43493;53.098;6.064;2023-07-13T09:55:31;4.23;;;1.30;;
57663;SDS011;43493;53.098;6.064;2023-07-13T09:58:09;3.77;;;1.80;;
57663;SDS011;43493;53.098;6.064;2023-07-13T10:00:38;4.57;;;1.77;;
57663;SDS011;43493;53.098;6.064;2023-07-13T10:03:09;6.57;;;1.50;;
57663;SDS011;43493;53.098;6.064;2023-07-13T10:05:46;2.97;;;1.20;;
57663;SDS011;43493;53.098;6.064;2023-07-13T10:11:00;3.60;;;1.37;;
57663;SDS011;43493;53.098;6.064;2023-07-13T10:13:34;4.23;;;1.63;;
57663;SDS011;43493;53.098;6.064;2023-07-13T10:16:02;3.50;;;1.50;;
57663;SDS011;43493;53.098;6.064;2023-07-13T10:18:43;5.73;;;1.60;;
57663;SDS011;43493;53.098;6.064;2023-07-13T10:21:13;6.03;;;1.70;;
57663;SDS011;43493;53.098;6.064;2023-07-13T10:23:45;5.83;;;1.70;;
57663;SDS011;43493;53.098;6.064;2023-07-13T10:26:16;4.53;;;1.57;;
57663;SDS011;43493;53.098;6.064;2023-07-13T10:28:48;3.93;;;1.50;;
57663;SDS011;43493;53.098;6.064;2023-07-13T10:31:18;5.80;;;1.80;;
57663;SDS011;43493;53.098;6.064;2023-07-13T10:33:45;3.93;;;1.27;;
57663;SDS011;43493;53.098;6.064;2023-07-13T10:36:23;4.60;;;1.53;;
57663;SDS011;43493;53.098;6.064;2023-07-13T10:38:53;6.17;;;2.10;;
57663;SDS011;43493;53.098;6.064;2023-07-13T10:41:21;4.63;;;1.60;;
57663;SDS011;43493;53.098;6.064;2023-07-13T10:43:51;4.93;;;1.80;;
57663;SDS011;43493;53.098;6.064;2023-07-13T10:46:20;5.97;;;1.50;;
57663;SDS011;43493;53.098;6.064;2023-07-13T10:48:51;4.30;;;1.60;;
57663;SDS011;43493;53.098;6.064;2023-07-13T10:51:20;4.03;;;1.73;;
57663;SDS011;43493;53.098;6.064;2023-07-13T10:53:47;6.60;;;1.93;;
57663;SDS011;43493;53.098;6.064;2023-07-13T10:56:34;7.77;;;2.03;;
57663;SDS011;43493;53.098;6.064;2023-07-13T11:04:16;4.93;;;2.10;;
57663;SDS011;43493;53.098;6.064;2023-07-13T11:06:43;5.77;;;1.93;;
57663;SDS011;43493;53.098;6.064;2023-07-13T11:11:45;6.53;;;2.00;;
57663;SDS011;43493;53.098;6.064;2023-07-13T11:16:56;6.17;;;1.73;;
57663;SDS011;43493;53.098;6.064;2023-07-13T11:29:47;5.20;;;2.10;;
57663;SDS011;43493;53.098;6.064;2023-07-13T11:32:32;4.87;;;2.00;;
57663;SDS011;43493;53.098;6.064;2023-07-13T11:34:58;4.13;;;1.80;;
57663;SDS011;43493;53.098;6.064;2023-07-13T11:37:24;5.73;;;2.10;;
57663;SDS011;43493;53.098;6.064;2023-07-13T11:39:51;5.13;;;1.70;;
57663;SDS011;43493;53.098;6.064;2023-07-13T11:42:18;4.93;;;2.70;;
57663;SDS011;43493;53.098;6.064;2023-07-13T11:44:50;10.43;;;2.10;;
57663;SDS011;43493;53.098;6.064;2023-07-13T11:47:19;6.77;;;2.20;;
57663;SDS011;43493;53.098;6.064;2023-07-13T11:49:50;6.57;;;1.97;;
57663;SDS011;43493;53.098;6.064;2023-07-13T11:52:21;5.90;;;1.67;;
57663;SDS011;43493;53.098;6.064;2023-07-13T11:54:53;4.53;;;1.83;;
57663;SDS011;43493;53.098;6.064;2023-07-13T11:57:23;4.80;;;1.53;;
57663;SDS011;43493;53.098;6.064;2023-07-13T11:59:52;4.67;;;1.60;;
57663;SDS011;43493;53.098;6.064;2023-07-13T12:02:26;5.17;;;1.47;;
57663;SDS011;43493;53.098;6.064;2023-07-13T12:04:58;8.67;;;2.17;;
57663;SDS011;43493;53.098;6.064;2023-07-13T12:07:28;5.03;;;1.90;;
57663;SDS011;43493;53.098;6.064;2023-07-13T12:10:02;4.33;;;1.73;;
57663;SDS011;43493;53.098;6.064;2023-07-13T12:12:36;5.73;;;2.43;;
57663;SDS011;43493;53.098;6.064;2023-07-13T12:15:05;6.27;;;2.13;;
57663;SDS011;43493;53.098;6.064;2023-07-13T12:17:33;7.30;;;2.60;;
57663;SDS011;43493;53.098;6.064;2023-07-13T12:20:00;5.70;;;1.60;;
57663;SDS011;43493;53.098;6.064;2023-07-13T12:22:37;4.73;;;1.57;;
57663;SDS011;43493;53.098;6.064;2023-07-13T12:25:03;6.53;;;1.80;;
57663;SDS011;43493;53.098;6.064;2023-07-13T12:27:30;4.77;;;1.80;;
57663;SDS011;43493;53.098;6.064;2023-07-13T12:30:02;5.97;;;1.50;;
57663;SDS011;43493;53.098;6.064;2023-07-13T12:32:31;5.77;;;1.53;;
57663;SDS011;43493;53.098;6.064;2023-07-13T12:35:12;3.10;;;1.60;;
57663;SDS011;43493;53.098;6.064;2023-07-13T12:37:43;5.10;;;1.90;;
57663;SDS011;43493;53.098;6.064;2023-07-13T12:40:21;5.77;;;1.50;;
57663;SDS011;43493;53.098;6.064;2023-07-13T12:42:53;4.80;;;1.73;;
57663;SDS011;43493;53.098;6.064;2023-07-13T12:45:20;5.53;;;2.07;;
57663;SDS011;43493;53.098;6.064;2023-07-13T12:47:49;3.90;;;1.83;;
57663;SDS011;43493;53.098;6.064;2023-07-13T12:50:20;3.50;;;1.43;;
57663;SDS011;43493;53.098;6.064;2023-07-13T12:52:54;4.50;;;2.13;;
57663;SDS011;43493;53.098;6.064;2023-07-13T12:55:23;6.47;;;2.17;;
57663;SDS011;43493;53.098;6.064;2023-07-13T12:57:51;7.13;;;2.63;;
57663;SDS011;43493;53.098;6.064;2023-07-13T13:02:50;6.13;;;2.10;;
57663;SDS011;43493;53.098;6.064;2023-07-13T13:05:17;5.67;;;1.97;;
57663;SDS011;43493;53.098;6.064;2023-07-13T13:07:44;6.43;;;2.00;;
57663;SDS011;43493;53.098;6.064;2023-07-13T13:10:13;5.47;;;1.80;;
57663;SDS011;43493;53.098;6.064;2023-07-13T13:12:40;7.10;;;1.67;;
57663;SDS011;43493;53.098;6.064;2023-07-13T13:15:09;4.57;;;1.80;;
57663;SDS011;43493;53.098;6.064;2023-07-13T13:17:36;9.03;;;2.00;;
57663;SDS011;43493;53.098;6.064;2023-07-13T13:20:04;3.70;;;1.63;;
57663;SDS011;43493;53.098;6.064;2023-07-13T13:22:41;4.93;;;1.77;;
57663;SDS011;43493;53.098;6.064;2023-07-13T13:25:09;4.57;;;1.57;;
57663;SDS011;43493;53.098;6.064;2023-07-13T13:27:36;4.13;;;1.70;;
57663;SDS011;43493;53.098;6.064;2023-07-13T13:30:02;4.20;;;1.60;;
57663;SDS011;43493;53.098;6.064;2023-07-13T13:32:28;5.03;;;1.63;;
57663;SDS011;43493;53.098;6.064;2023-07-13T13:34:54;5.40;;;1.70;;
57663;SDS011;43493;53.098;6.064;2023-07-13T13:37:21;5.67;;;2.03;;
57663;SDS011;43493;53.098;6.064;2023-07-13T13:39:50;6.43;;;1.93;;
57663;SDS011;43493;53.098;6.064;2023-07-13T13:42:17;6.37;;;2.10;;
57663;SDS011;43493;53.098;6.064;2023-07-13T13:44:42;5.13;;;1.97;;
57663;SDS011;43493;53.098;6.064;2023-07-13T13:47:50;4.03;;;1.67;;
57663;SDS011;43493;53.098;6.064;2023-07-13T13:50:01;6.73;;;1.90;;
57663;SDS011;43493;53.098;6.064;2023-07-13T13:52:34;6.27;;;1.97;;
57663;SDS011;43493;53.098;6.064;2023-07-13T13:55:00;7.30;;;2.10;;
57663;SDS011;43493;53.098;6.064;2023-07-13T13:57:26;6.37;;;2.13;;
57663;SDS011;43493;53.098;6.064;2023-07-13T13:59:52;6.33;;;2.30;;
57663;SDS011;43493;53.098;6.064;2023-07-13T14:02:25;6.43;;;2.43;;
57663;SDS011;43493;53.098;6.064;2023-07-13T14:07:24;6.60;;;2.37;;
57663;SDS011;43493;53.098;6.064;2023-07-13T14:09:51;7.53;;;2.03;;
57663;SDS011;43493;53.098;6.064;2023-07-13T14:12:18;6.40;;;1.73;;
57663;SDS011;43493;53.098;6.064;2023-07-13T14:14:45;5.87;;;1.83;;
57663;SDS011;43493;53.098;6.064;2023-07-13T14:17:18;10.17;;;2.43;;
57663;SDS011;43493;53.098;6.064;2023-07-13T14:19:49;6.80;;;1.80;;
57663;SDS011;43493;53.098;6.064;2023-07-13T14:22:19;5.23;;;1.80;;
57663;SDS011;43493;53.098;6.064;2023-07-13T14:24:45;5.67;;;1.97;;
57663;SDS011;43493;53.098;6.064;2023-07-13T14:27:11;5.50;;;2.40;;
57663;SDS011;43493;53.098;6.064;2023-07-13T14:29:38;7.40;;;2.43;;
57663;SDS011;43493;53.098;6.064;2023-07-13T14:32:04;8.20;;;2.13;;
57663;SDS011;43493;53.098;6.064;2023-07-13T14:34:31;6.50;;;2.20;;
57663;SDS011;43493;53.098;6.064;2023-07-13T14:36:56;8.27;;;2.10;;
57663;SDS011;43493;53.098;6.064;2023-07-13T14:39:23;5.73;;;1.80;;
57663;SDS011;43493;53.098;6.064;2023-07-13T14:41:50;8.23;;;1.77;;
57663;SDS011;43493;53.098;6.064;2023-07-13T14:44:20;4.90;;;2.13;;
57663;SDS011;43493;53.098;6.064;2023-07-13T14:46:49;7.47;;;2.07;;
57663;SDS011;43493;53.098;6.064;2023-07-13T14:51:48;7.73;;;2.20;;
57663;SDS011;43493;53.098;6.064;2023-07-13T14:54:14;4.73;;;1.73;;
57663;SDS011;43493;53.098;6.064;2023-07-13T14:56:40;8.20;;;2.20;;
57663;SDS011;43493;53.098;6.064;2023-07-13T14:59:05;6.37;;;2.10;;
57663;SDS011;43493;53.098;6.064;2023-07-13T15:01:33;8.07;;;2.43;;
57663;SDS011;43493;53.098;6.064;2023-07-13T15:04:00;6.17;;;2.43;;
57663;SDS011;43493;53.098;6.064;2023-07-13T15:06:27;4.33;;;1.50;;
57663;SDS011;43493;53.098;6.064;2023-07-13T15:08:54;7.57;;;2.43;;
57663;SDS011;43493;53.098;6.064;2023-07-13T15:11:20;7.83;;;2.20;;
57663;SDS011;43493;53.098;6.064;2023-07-13T15:13:47;8.07;;;2.07;;
57663;SDS011;43493;53.098;6.064;2023-07-13T15:16:15;10.27;;;2.43;;
57663;SDS011;43493;53.098;6.064;2023-07-13T15:18:43;7.70;;;2.63;;
57663;SDS011;43493;53.098;6.064;2023-07-13T15:21:10;10.00;;;2.40;;
57663;SDS011;43493;53.098;6.064;2023-07-13T15:23:39;7.83;;;2.40;;
57663;SDS011;43493;53.098;6.064;2023-07-13T15:26:08;6.97;;;2.50;;
57663;SDS011;43493;53.098;6.064;2023-07-13T15:28:38;6.67;;;2.13;;
57663;SDS011;43493;53.098;6.064;2023-07-13T15:31:04;5.13;;;2.07;;